Gorham, Kansas
Current Conditions -  °F | °C
As of 5:53 AM on Thursday 27 Nov 2014 (Local Time) from KRSL Reporting Station
Clear Clear  
Wind Chill: 13°   Ceiling: Unl
Heat Index: 20°   Visibility: 10mi
Dew Point: 16°   Wind: 5mph
Humidity: 85%   Direction: 140°SE
Pressure: 30.45"   Gusts: NA
Location:  38.88°N, 99.02°W
Report Text: KRSL 271153Z AUTO 14004KT 10SM CLR M07/M09 A3045 RMK AO2 SLP334 T10671089 11017 21067 53004
Loading
Personal Weather Stations






























Interactive Weather Map New forecast layout! Learn more

10-Day Weather Forecast

Advertisements
Track Severe Weather on mobile